Time;durP1;ratioP1;P1;durP2;ratioP2;P2;SDS_P1;SDS_P2;PMS_P1;PMS_P2;Temp;Humidity;BMP_temperature;BMP_pressure;BME280_temperature;BME280_humidity;BME280_pressure;Samples;Min_cycle;Max_cycle;Signal;HPM_P1;HPM_P2
2024/02/07 00:01:51;;;;;;;;;;;;;;;-155.54;100.00;57697.75;4994530;28;20222;-77
2024/02/07 00:04:16;;;;;;;;;;;;;;;-155.54;100.00;57697.75;4992559;28;20008;-76
2024/02/07 00:06:41;;;;;;;;;;;;;;;-155.54;100.00;57697.75;4997205;28;20421;-76
2024/02/07 00:09:07;;;;;;;;;;;;;;;-155.54;100.00;57697.75;4996566;28;19997;-76
2024/02/07 00:11:32;;;;;;;;;;;;;;;-155.54;100.00;57697.75;4996313;28;19925;-76
2024/02/07 00:13:58;;;;;;;;;;;;;;;-155.54;100.00;57697.75;4999413;28;19921;-76
2024/02/07 00:16:23;;;;;;;;;;;;;;;-155.54;100.00;57697.75;4998703;28;21290;-76
2024/02/07 00:18:48;;;;;;;;;;;;;;;-155.54;100.00;57697.75;4994047;28;19929;-77
2024/02/07 00:21:14;;;;;;;;;;;;;;;-155.54;100.00;57697.75;4976913;28;19960;-77
2024/02/07 00:23:39;;;;;;;;;;;;;;;-155.54;100.00;57697.75;4996738;28;19930;-77
2024/02/07 00:26:04;;;;;;;;;;;;;;;-155.54;100.00;57697.75;4997959;28;19931;-76
2024/02/07 00:28:30;;;;;;;;;;;;;;;-155.54;100.00;57697.75;4992307;28;20659;-76
2024/02/07 00:30:55;;;;;;;;;;;;;;;-155.54;100.00;57697.75;4990470;28;19964;-76
2024/02/07 00:33:20;;;;;;;;;;;;;;;-155.54;100.00;57697.75;4994209;28;19922;-75
2024/02/07 00:35:45;;;;;;;;;;;;;;;-155.54;100.00;57697.75;4988523;28;19949;-74
2024/02/07 00:38:11;;;;;;;;;;;;;;;-155.54;100.00;57697.75;4996539;28;19922;-74
2024/02/07 00:40:36;;;;;;;;;;;;;;;-155.54;100.00;57697.75;4958060;28;19934;-74
2024/02/07 00:43:01;;;;;;;;;;;;;;;-155.54;100.00;57697.75;4977891;28;19921;-74
2024/02/07 00:45:30;;;;;;;;;;;;;;;-155.54;100.00;57697.75;5003151;28;20124;-74
2024/02/07 00:47:55;;;;;;;;;;;;;;;-155.54;100.00;57697.75;4981869;28;20053;-75
2024/02/07 00:50:21;;;;;;;;;;;;;;;-155.54;100.00;57697.75;4970417;28;20282;-74
2024/02/07 00:52:46;;;;;;;;;;;;;;;-155.54;100.00;57697.75;4988627;28;20383;-74
2024/02/07 00:55:11;;;;;;;;;;;;;;;-155.54;100.00;57697.75;4969954;28;19984;-74
2024/02/07 00:57:38;;;;;;;;;;;;;;;-155.54;100.00;57697.75;4998339;28;20389;-74
2024/02/07 01:00:04;;;;;;;;;;;;;;;-155.54;100.00;57697.75;4997546;28;19925;-74
2024/02/07 01:02:30;;;;;;;;;;;;;;;-155.54;100.00;57697.75;4988292;28;20232;-74
2024/02/07 01:04:55;;;;;;;;;;;;;;;-155.54;100.00;57697.75;4985497;28;19960;-74
2024/02/07 01:07:20;;;;;;;;;;;;;;;-155.54;100.00;57697.75;4974333;28;20004;-74
2024/02/07 01:09:46;;;;;;;;;;;;;;;-155.54;100.00;57697.75;4986539;28;20052;-74
2024/02/07 01:12:12;;;;;;;;;;;;;;;-155.54;100.00;57697.75;4993143;28;20520;-74
2024/02/07 01:14:37;;;;;;;;;;;;;;;-155.54;100.00;57697.75;4997443;28;19928;-74
2024/02/07 01:17:03;;;;;;;;;;;;;;;-155.54;100.00;57697.75;4973926;28;19925;-74
2024/02/07 01:19:28;;;;;;;;;;;;;;;-155.54;100.00;57697.75;4989353;28;19929;-74
2024/02/07 01:21:53;;;;;;;;;;;;;;;-155.54;100.00;57697.75;4991157;28;20260;-74
2024/02/07 01:24:19;;;;;;;;;;;;;;;-155.54;100.00;57697.75;4996737;28;19952;-74
2024/02/07 01:26:44;;;;;;;;;;;;;;;-155.54;100.00;57697.75;4991255;28;20084;-74
2024/02/07 01:29:09;;;;;;;;;;;;;;;-155.54;100.00;57697.75;4991579;28;19930;-75
2024/02/07 01:31:34;;;;;;;;;;;;;;;-155.54;100.00;57697.75;4991020;28;20461;-74
2024/02/07 01:34:00;;;;;;;;;;;;;;;-155.54;100.00;57697.75;4978871;28;19921;-74
2024/02/07 01:36:25;;;;;;;;;;;;;;;-155.54;100.00;57697.75;4975135;28;19939;-74
2024/02/07 01:38:51;;;;;;;;;;;;;;;-155.54;100.00;57697.75;4995801;28;19961;-74
2024/02/07 01:41:16;;;;;;;;;;;;;;;-155.54;100.00;57697.75;4997602;28;20044;-74
2024/02/07 01:43:41;;;;;;;;;;;;;;;-155.54;100.00;57697.75;4980064;28;19960;-77
2024/02/07 01:46:07;;;;;;;;;;;;;;;-155.54;100.00;57697.75;4979284;28;20330;-77
2024/02/07 01:48:33;;;;;;;;;;;;;;;-155.54;100.00;57697.75;4973352;28;20012;-77
2024/02/07 01:50:58;;;;;;;;;;;;;;;-155.54;100.00;57697.75;4987575;28;20112;-76
2024/02/07 01:53:23;;;;;;;;;;;;;;;-155.54;100.00;57697.75;4990275;28;19929;-77
2024/02/07 01:55:49;;;;;;;;;;;;;;;-155.54;100.00;57697.75;4974572;28;20099;-79
2024/02/07 01:58:15;;;;;;;;;;;;;;;-155.54;100.00;57697.75;4973004;28;20140;-76
2024/02/07 02:00:41;;;;;;;;;;;;;;;-155.54;100.00;57697.75;4982764;28;20589;-77
2024/02/07 02:03:06;;;;;;;;;;;;;;;-155.54;100.00;57697.75;4978512;28;20145;-75
2024/02/07 02:05:31;;;;;;;;;;;;;;;-155.54;100.00;57697.75;4987402;28;20153;-75
2024/02/07 02:07:57;;;;;;;;;;;;;;;-155.54;100.00;57697.75;4995825;28;19965;-77
2024/02/07 02:10:22;;;;;;;;;;;;;;;-155.54;100.00;57697.75;4987386;28;19924;-76
2024/02/07 02:12:47;;;;;;;;;;;;;;;-155.54;100.00;57697.75;4995900;28;19925;-75
2024/02/07 02:15:13;;;;;;;;;;;;;;;-155.54;100.00;57697.75;4979388;28;19917;-79
2024/02/07 02:17:38;;;;;;;;;;;;;;;-155.54;100.00;57697.75;4972780;28;19956;-77
2024/02/07 02:20:04;;;;;;;;;;;;;;;-155.54;100.00;57697.75;4986697;28;20455;-76
2024/02/07 02:22:30;;;;;;;;;;;;;;;-155.54;100.00;57697.75;4995881;28;19941;-76
2024/02/07 02:25:03;;;;;;;;;;;;;;;-155.54;100.00;57697.75;4985019;28;19931;-79
2024/02/07 02:27:37;;;;;;;;;;;;;;;-155.54;100.00;57697.75;4995480;28;19917;-76
2024/02/07 02:30:09;;;;;;;;;;;;;;;-155.54;100.00;57697.75;4985100;28;20450;-77
2024/02/07 02:32:34;;;;;;;;;;;;;;;-155.54;100.00;57697.75;4994831;28;20469;-76
2024/02/07 02:35:00;;;;;;;;;;;;;;;-155.54;100.00;57697.75;4984498;28;19924;-76
2024/02/07 02:37:25;;;;;;;;;;;;;;;-155.54;100.00;57697.75;4975527;28;20393;-75
2024/02/07 02:39:51;;;;;;;;;;;;;;;-155.54;100.00;57697.75;4978888;28;19921;-78
2024/02/07 02:42:16;;;;;;;;;;;;;;;-155.54;100.00;57697.75;4994449;28;20693;-75
2024/02/07 02:44:41;;;;;;;;;;;;;;;-155.54;100.00;57697.75;4996453;28;20007;-77
2024/02/07 02:47:07;;;;;;;;;;;;;;;-155.54;100.00;57697.75;4996378;28;20660;-75
2024/02/07 02:49:33;;;;;;;;;;;;;;;-155.54;100.00;57697.75;4995479;28;19921;-76
2024/02/07 02:51:58;;;;;;;;;;;;;;;-155.54;100.00;57697.75;4996295;28;19971;-75
2024/02/07 02:54:23;;;;;;;;;;;;;;;-155.54;100.00;57697.75;4993691;28;19929;-76
2024/02/07 02:56:49;;;;;;;;;;;;;;;-155.54;100.00;57697.75;4991339;28;19925;-76
2024/02/07 02:59:14;;;;;;;;;;;;;;;-155.54;100.00;57697.75;4992998;28;19949;-76
2024/02/07 03:01:40;;;;;;;;;;;;;;;-155.54;100.00;57697.75;4995988;28;19925;-76
2024/02/07 03:04:06;;;;;;;;;;;;;;;-155.54;100.00;57697.75;4993970;28;19999;-76
2024/02/07 03:06:58;;;;;;;;;;;;;;;-155.54;100.00;57697.75;4996369;28;19917;-76
2024/02/07 03:09:26;;;;;;;;;;;;;;;-155.54;100.00;57697.75;4975305;28;20047;-76
2024/02/07 03:11:52;;;;;;;;;;;;;;;-155.54;100.00;57697.75;4975818;28;19943;-76
2024/02/07 03:14:17;;;;;;;;;;;;;;;-155.54;100.00;57697.75;4982450;28;20378;-76
2024/02/07 03:16:42;;;;;;;;;;;;;;;-155.54;100.00;57697.75;4996275;28;20062;-76
2024/02/07 03:19:08;;;;;;;;;;;;;;;-155.54;100.00;57697.75;4990462;28;19926;-76
2024/02/07 03:21:33;;;;;;;;;;;;;;;-155.54;100.00;57697.75;4996307;28;20111;-75
2024/02/07 03:23:58;;;;;;;;;;;;;;;-155.54;100.00;57697.75;4991363;28;19925;-75
2024/02/07 03:26:23;;;;;;;;;;;;;;;-155.54;100.00;57697.75;4996510;28;20525;-76
2024/02/07 03:28:52;;;;;;;;;;;;;;;-155.54;100.00;57697.75;4987900;28;19929;-75
2024/02/07 03:31:17;;;;;;;;;;;;;;;-155.54;100.00;57697.75;4991293;28;19922;-76
2024/02/07 03:33:43;;;;;;;;;;;;;;;-155.54;100.00;57697.75;5005032;28;19976;-76
2024/02/07 03:36:09;;;;;;;;;;;;;;;-155.54;100.00;57697.75;4998447;28;19984;-76
2024/02/07 03:38:34;;;;;;;;;;;;;;;-155.54;100.00;57697.75;4996925;28;20183;-76
2024/02/07 03:41:00;;;;;;;;;;;;;;;-155.54;100.00;57697.75;4995783;28;21283;-76
2024/02/07 03:43:27;;;;;;;;;;;;;;;-155.54;100.00;57697.75;4969453;28;19980;-76
2024/02/07 03:45:52;;;;;;;;;;;;;;;-155.54;100.00;57697.75;4989255;28;19976;-76
2024/02/07 03:48:17;;;;;;;;;;;;;;;-155.54;100.00;57697.75;4975294;28;19972;-76
2024/02/07 03:50:43;;;;;;;;;;;;;;;-155.54;100.00;57697.75;4991352;28;19932;-76
2024/02/07 03:53:08;;;;;;;;;;;;;;;-155.54;100.00;57697.75;4992488;28;19922;-76
2024/02/07 03:55:37;;;;;;;;;;;;;;;-155.54;100.00;57697.75;4980813;28;19975;-76
2024/02/07 03:58:02;;;;;;;;;;;;;;;-155.54;100.00;57697.75;4998058;28;19961;-76
2024/02/07 04:00:27;;;;;;;;;;;;;;;-155.54;100.00;57697.75;4986387;28;20029;-76
2024/02/07 04:02:53;;;;;;;;;;;;;;;-155.54;100.00;57697.75;4985272;28;20619;-76
2024/02/07 04:05:18;;;;;;;;;;;;;;;-155.54;100.00;57697.75;4986472;28;20033;-76
2024/02/07 04:07:43;;;;;;;;;;;;;;;-155.54;100.00;57697.75;4997466;28;19921;-76
2024/02/07 04:10:09;;;;;;;;;;;;;;;-155.54;100.00;57697.75;4981366;28;20117;-76
2024/02/07 05:17:28;;;;;;;;;;;;;;;-155.54;100.00;57697.75;4997753;28;20437;-75
2024/02/07 05:19:53;;;;;;;;;;;;;;;-155.54;100.00;57697.75;4978613;28;19930;-74
2024/02/07 05:22:19;;;;;;;;;;;;;;;-155.54;100.00;57697.75;4997768;28;19961;-73
2024/02/07 05:24:45;;;;;;;;;;;;;;;-155.54;100.00;57697.75;4984657;28;20311;-76
2024/02/07 05:27:12;;;;;;;;;;;;;;;-155.54;100.00;57697.75;4993843;28;20288;-72
2024/02/07 05:29:38;;;;;;;;;;;;;;;-155.54;100.00;57697.75;4990542;28;19922;-74
2024/02/07 05:32:03;;;;;;;;;;;;;;;-155.54;100.00;57697.75;4976046;28;19928;-72
2024/02/07 05:34:28;;;;;;;;;;;;;;;-155.54;100.00;57697.75;4989465;28;19925;-75
2024/02/07 05:36:54;;;;;;;;;;;;;;;-155.54;100.00;57697.75;4995391;28;19949;-74
2024/02/07 05:39:19;;;;;;;;;;;;;;;-155.54;100.00;57697.75;4975660;28;20416;-73
2024/02/07 05:41:45;;;;;;;;;;;;;;;-155.54;100.00;57697.75;4997802;28;20276;-75
2024/02/07 05:44:11;;;;;;;;;;;;;;;-155.54;100.00;57697.75;4973849;28;19921;-72
2024/02/07 05:46:36;;;;;;;;;;;;;;;-155.54;100.00;57697.75;4992787;28;19925;-74
2024/02/07 05:49:01;;;;;;;;;;;;;;;-155.54;100.00;57697.75;4969560;28;19932;-73
2024/02/07 05:51:27;;;;;;;;;;;;;;;-155.54;100.00;57697.75;4972734;28;19925;-75
2024/02/07 05:53:53;;;;;;;;;;;;;;;-155.54;100.00;57697.75;4970013;28;20293;-74
2024/02/07 05:56:19;;;;;;;;;;;;;;;-155.54;100.00;57697.75;4973530;28;20188;-73
2024/02/07 05:58:47;;;;;;;;;;;;;;;-155.54;100.00;57697.75;4973452;28;20561;-74
2024/02/07 06:01:13;;;;;;;;;;;;;;;-155.54;100.00;57697.75;4986107;28;19981;-75
2024/02/07 06:03:38;;;;;;;;;;;;;;;-155.54;100.00;57697.75;4978345;28;20038;-74
2024/02/07 06:06:06;;;;;;;;;;;;;;;-155.54;100.00;57697.75;4998401;28;19965;-74
2024/02/07 06:08:31;;;;;;;;;;;;;;;-155.54;100.00;57697.75;4993351;28;20198;-74
2024/02/07 06:10:58;;;;;;;;;;;;;;;-155.54;100.00;57697.75;5002262;28;20537;-74
2024/02/07 06:13:24;;;;;;;;;;;;;;;-155.54;100.00;57697.75;4972077;28;20461;-74
2024/02/07 06:15:50;;;;;;;;;;;;;;;-155.54;100.00;57697.75;5003667;28;19921;-74
2024/02/07 06:18:16;;;;;;;;;;;;;;;-155.54;100.00;57697.75;4993634;28;19925;-73
2024/02/07 06:20:42;;;;;;;;;;;;;;;-155.54;100.00;57697.75;4995135;28;20040;-74
2024/02/07 06:23:07;;;;;;;;;;;;;;;-155.54;100.00;57697.75;4974442;28;20004;-73
2024/02/07 06:25:33;;;;;;;;;;;;;;;-155.54;100.00;57697.75;4970726;28;19964;-74
2024/02/07 06:27:58;;;;;;;;;;;;;;;-155.54;100.00;57697.75;4990802;28;20473;-74
2024/02/07 06:30:23;;;;;;;;;;;;;;;-155.54;100.00;57697.75;4965162;28;19925;-75
2024/02/07 06:32:49;;;;;;;;;;;;;;;-155.54;100.00;57697.75;4992059;28;19976;-73
2024/02/07 06:35:14;;;;;;;;;;;;;;;-155.54;100.00;57697.75;4987385;28;20309;-74
2024/02/07 06:37:39;;;;;;;;;;;;;;;-155.54;100.00;57697.75;4993668;28;19928;-75
2024/02/07 06:40:05;;;;;;;;;;;;;;;-155.54;100.00;57697.75;4989584;28;19929;-74
2024/02/07 06:42:30;;;;;;;;;;;;;;;-155.54;100.00;57697.75;4995296;28;20148;-73
2024/02/07 06:44:55;;;;;;;;;;;;;;;-155.54;100.00;57697.75;4989787;28;20229;-75
2024/02/07 06:47:21;;;;;;;;;;;;;;;-155.54;100.00;57697.75;4992202;28;20422;-74
2024/02/07 06:49:46;;;;;;;;;;;;;;;-155.54;100.00;57697.75;4985563;28;20027;-74
2024/02/07 06:52:11;;;;;;;;;;;;;;;-155.54;100.00;57697.75;4991308;28;20459;-74
2024/02/07 06:54:36;;;;;;;;;;;;;;;-155.54;100.00;57697.75;4990123;28;20256;-73
2024/02/07 06:57:02;;;;;;;;;;;;;;;-155.54;100.00;57697.75;4987854;28;19929;-73
2024/02/07 06:59:27;;;;;;;;;;;;;;;-155.54;100.00;57697.75;4996874;28;20394;-74
2024/02/07 07:01:53;;;;;;;;;;;;;;;-155.54;100.00;57697.75;4994609;28;19921;-73
2024/02/07 07:04:18;;;;;;;;;;;;;;;-155.54;100.00;57697.75;4987268;28;19933;-74
2024/02/07 07:06:43;;;;;;;;;;;;;;;-155.54;100.00;57697.75;4994216;28;20302;-73
2024/02/07 07:09:08;;;;;;;;;;;;;;;-155.54;100.00;57697.75;4987604;28;20013;-74
2024/02/07 07:11:34;;;;;;;;;;;;;;;-155.54;100.00;57697.75;4972505;28;19921;-75
2024/02/07 07:13:59;;;;;;;;;;;;;;;-155.54;100.00;57697.75;4997507;28;19992;-75
2024/02/07 07:16:25;;;;;;;;;;;;;;;-155.54;100.00;57697.75;4994329;28;20016;-74
2024/02/07 07:18:52;;;;;;;;;;;;;;;-155.54;100.00;57697.75;4991123;28;20422;-73
2024/02/07 07:21:18;;;;;;;;;;;;;;;-155.54;100.00;57697.75;4990171;28;19929;-74
2024/02/07 07:23:43;;;;;;;;;;;;;;;-155.54;100.00;57697.75;4991120;28;19930;-70
2024/02/07 07:26:08;;;;;;;;;;;;;;;-155.54;100.00;57697.75;4987573;28;19922;-71
2024/02/07 07:28:33;;;;;;;;;;;;;;;-155.54;100.00;57697.75;4989960;28;19991;-72
2024/02/07 07:30:59;;;;;;;;;;;;;;;-155.54;100.00;57697.75;4970744;28;19937;-72
2024/02/07 07:33:24;;;;;;;;;;;;;;;-155.54;100.00;57697.75;4958985;28;19926;-72
2024/02/07 07:35:49;;;;;;;;;;;;;;;-155.54;100.00;57697.75;4993353;28;19925;-72
2024/02/07 07:38:14;;;;;;;;;;;;;;;-155.54;100.00;57697.75;4972403;28;19936;-72
2024/02/07 07:40:40;;;;;;;;;;;;;;;-155.54;100.00;57697.75;4994957;28;20024;-72
2024/02/07 07:43:06;;;;;;;;;;;;;;;-155.54;100.00;57697.75;4987910;28;19934;-73
2024/02/07 07:45:31;;;;;;;;;;;;;;;-155.54;100.00;57697.75;4985737;28;19969;-70
2024/02/07 07:47:56;;;;;;;;;;;;;;;-155.54;100.00;57697.75;4985729;28;20337;-72
2024/02/07 07:50:21;;;;;;;;;;;;;;;-155.54;100.00;57697.75;4974016;28;19925;-72
2024/02/07 07:52:47;;;;;;;;;;;;;;;-155.54;100.00;57697.75;4983275;28;19971;-72
2024/02/07 07:55:12;;;;;;;;;;;;;;;-155.54;100.00;57697.75;4989441;28;19929;-72
2024/02/07 07:57:37;;;;;;;;;;;;;;;-155.54;100.00;57697.75;4996271;28;20040;-72
2024/02/07 08:00:03;;;;;;;;;;;;;;;-155.54;100.00;57697.75;4984701;28;20391;-72
2024/02/07 08:02:29;;;;;;;;;;;;;;;-155.54;100.00;57697.75;4994788;28;20073;-72
2024/02/07 08:04:54;;;;;;;;;;;;;;;-155.54;100.00;57697.75;4989976;28;19926;-72
2024/02/07 08:07:20;;;;;;;;;;;;;;;-155.54;100.00;57697.75;4990387;28;20326;-72
2024/02/07 08:09:46;;;;;;;;;;;;;;;-155.54;100.00;57697.75;4984825;28;20264;-71
2024/02/07 08:12:11;;;;;;;;;;;;;;;-155.54;100.00;57697.75;4990332;28;20446;-72
2024/02/07 08:14:36;;;;;;;;;;;;;;;-155.54;100.00;57697.75;4993024;28;20488;-72
2024/02/07 08:17:01;;;;;;;;;;;;;;;-155.54;100.00;57697.75;4988576;28;19953;-71
2024/02/07 08:19:27;;;;;;;;;;;;;;;-155.54;100.00;57697.75;4998704;28;19956;-71
2024/02/07 08:21:52;;;;;;;;;;;;;;;-155.54;100.00;57697.75;4974884;28;19976;-72
2024/02/07 08:24:18;;;;;;;;;;;;;;;-155.54;100.00;57697.75;4987496;28;19930;-72
2024/02/07 08:26:44;;;;;;;;;;;;;;;-155.54;100.00;57697.75;4993215;28;19927;-72
2024/02/07 08:29:09;;;;;;;;;;;;;;;-155.54;100.00;57697.75;4987789;28;19925;-73
2024/02/07 08:31:34;;;;;;;;;;;;;;;-155.54;100.00;57697.75;4995666;28;20027;-73
2024/02/07 08:33:59;;;;;;;;;;;;;;;-155.54;100.00;57697.75;4994403;28;20643;-72
2024/02/07 08:36:25;;;;;;;;;;;;;;;-155.54;100.00;57697.75;4995485;28;20189;-73
2024/02/07 08:38:50;;;;;;;;;;;;;;;-155.54;100.00;57697.75;4972206;28;19922;-72
2024/02/07 08:41:15;;;;;;;;;;;;;;;-155.54;100.00;57697.75;4987632;28;19965;-72
2024/02/07 08:43:40;;;;;;;;;;;;;;;-155.54;100.00;57697.75;4969402;28;19921;-72
2024/02/07 08:46:06;;;;;;;;;;;;;;;-155.54;100.00;57697.75;4987756;28;19984;-73
2024/02/07 08:48:32;;;;;;;;;;;;;;;-155.54;100.00;57697.75;4989894;28;19975;-73
2024/02/07 08:50:57;;;;;;;;;;;;;;;-155.54;100.00;57697.75;4994275;28;20008;-73
2024/02/07 08:53:22;;;;;;;;;;;;;;;-155.54;100.00;57697.75;4990213;28;20017;-73
2024/02/07 08:55:48;;;;;;;;;;;;;;;-155.54;100.00;57697.75;4998512;28;20530;-73
2024/02/07 08:58:13;;;;;;;;;;;;;;;-155.54;100.00;57697.75;4986623;28;20129;-73
2024/02/07 09:00:40;;;;;;;;;;;;;;;-155.54;100.00;57697.75;4993067;28;20488;-73
2024/02/07 09:03:05;;;;;;;;;;;;;;;-155.54;100.00;57697.75;4990591;28;20174;-73
2024/02/07 09:05:30;;;;;;;;;;;;;;;-155.54;100.00;57697.75;4995783;28;20136;-73
2024/02/07 09:07:56;;;;;;;;;;;;;;;-155.54;100.00;57697.75;4989522;28;19932;-73
2024/02/07 09:10:23;;;;;;;;;;;;;;;-155.54;100.00;57697.75;4989560;28;20515;-73
2024/02/07 09:12:48;;;;;;;;;;;;;;;-155.54;100.00;57697.75;4995065;28;20493;-73
2024/02/07 09:15:13;;;;;;;;;;;;;;;-155.54;100.00;57697.75;4997417;28;20154;-73
2024/02/07 09:17:38;;;;;;;;;;;;;;;-155.54;100.00;57697.75;4995187;28;19972;-73
2024/02/07 09:20:04;;;;;;;;;;;;;;;-155.54;100.00;57697.75;4987696;28;20403;-73
2024/02/07 09:22:29;;;;;;;;;;;;;;;-155.54;100.00;57697.75;4991178;28;20000;-73
2024/02/07 09:24:55;;;;;;;;;;;;;;;-155.54;100.00;57697.75;4992947;28;19925;-72
2024/02/07 09:27:20;;;;;;;;;;;;;;;-155.54;100.00;57697.75;4993596;28;20046;-74
2024/02/07 09:29:45;;;;;;;;;;;;;;;-155.54;100.00;57697.75;4989582;28;19925;-73
2024/02/07 09:32:11;;;;;;;;;;;;;;;-155.54;100.00;57697.75;4987527;28;20361;-73
2024/02/07 09:34:36;;;;;;;;;;;;;;;-155.54;100.00;57697.75;4989604;28;19936;-73
2024/02/07 09:37:02;;;;;;;;;;;;;;;-155.54;100.00;57697.75;4997096;28;20004;-73
2024/02/07 09:39:27;;;;;;;;;;;;;;;-155.54;100.00;57697.75;4992747;28;19962;-73
2024/02/07 09:41:52;;;;;;;;;;;;;;;-155.54;100.00;57697.75;4997672;28;19979;-73
2024/02/07 09:44:21;;;;;;;;;;;;;;;-155.54;100.00;57697.75;4976214;28;20417;-73
2024/02/07 09:46:46;;;;;;;;;;;;;;;-155.54;100.00;57697.75;4998133;28;20007;-73
2024/02/07 09:49:12;;;;;;;;;;;;;;;-155.54;100.00;57697.75;4995070;28;20457;-73
2024/02/07 09:51:39;;;;;;;;;;;;;;;-155.54;100.00;57697.75;4974075;28;19925;-73
2024/02/07 09:54:04;;;;;;;;;;;;;;;-155.54;100.00;57697.75;4970529;28;19947;-73
2024/02/07 09:56:29;;;;;;;;;;;;;;;-155.54;100.00;57697.75;4994152;28;19926;-75
2024/02/07 09:58:55;;;;;;;;;;;;;;;-155.54;100.00;57697.75;4980044;28;20226;-75
2024/02/07 10:01:20;;;;;;;;;;;;;;;-155.54;100.00;57697.75;4972510;28;19984;-75
2024/02/07 10:03:46;;;;;;;;;;;;;;;-155.54;100.00;57697.75;4997519;28;19946;-75
2024/02/07 10:06:11;;;;;;;;;;;;;;;-155.54;100.00;57697.75;4996802;28;20357;-75
2024/02/07 10:08:37;;;;;;;;;;;;;;;-155.54;100.00;57697.75;4968075;28;20017;-75
2024/02/07 10:11:02;;;;;;;;;;;;;;;-155.54;100.00;57697.75;4988029;28;19922;-75
2024/02/07 10:13:27;;;;;;;;;;;;;;;-155.54;100.00;57697.75;4971507;28;19954;-75
2024/02/07 10:15:53;;;;;;;;;;;;;;;-155.54;100.00;57697.75;4973490;28;19961;-75
2024/02/07 10:18:18;;;;;;;;;;;;;;;-155.54;100.00;57697.75;4988087;28;19922;-75
2024/02/07 10:20:53;;;;;;;;;;;;;;;-155.54;100.00;57697.75;4987074;28;19965;-75
2024/02/07 10:23:18;;;;;;;;;;;;;;;-155.54;100.00;57697.75;4987438;28;19926;-76
2024/02/07 10:25:54;;;;;;;;;;;;;;;-155.54;100.00;57697.75;4986069;28;20499;-75
2024/02/07 10:28:19;;;;;;;;;;;;;;;-155.54;100.00;57697.75;4978416;28;19921;-75
2024/02/07 10:31:00;;;;;;;;;;;;;;;-155.54;100.00;57697.75;4971854;28;20008;-75
2024/02/07 10:33:35;;;;;;;;;;;;;;;-155.54;100.00;57697.75;4990535;28;20483;-75
2024/02/07 10:36:01;;;;;;;;;;;;;;;-155.54;100.00;57697.75;4991729;28;20521;-76
2024/02/07 10:38:26;;;;;;;;;;;;;;;-155.54;100.00;57697.75;4988866;28;19936;-75
2024/02/07 10:40:52;;;;;;;;;;;;;;;-155.54;100.00;57697.75;4989585;28;20539;-75
2024/02/07 10:43:23;;;;;;;;;;;;;;;-155.54;100.00;57697.75;4971285;28;19972;-76
2024/02/07 10:45:56;;;;;;;;;;;;;;;-155.54;100.00;57697.75;4963545;28;19925;-75
2024/02/07 10:48:22;;;;;;;;;;;;;;;-155.54;100.00;57697.75;4971305;28;20405;-75
2024/02/07 10:50:47;;;;;;;;;;;;;;;-155.54;100.00;57697.75;4974602;28;19921;-76
2024/02/07 10:53:12;;;;;;;;;;;;;;;-155.54;100.00;57697.75;4969486;28;20417;-75
2024/02/07 10:55:38;;;;;;;;;;;;;;;-155.54;100.00;57697.75;4974935;28;19988;-75
2024/02/07 10:58:03;;;;;;;;;;;;;;;-155.54;100.00;57697.75;4958948;28;20217;-75
2024/02/07 11:00:29;;;;;;;;;;;;;;;-155.54;100.00;57697.75;4966674;28;20028;-75
2024/02/07 11:02:55;;;;;;;;;;;;;;;-155.54;100.00;57697.75;4975145;28;19921;-75
2024/02/07 11:05:21;;;;;;;;;;;;;;;-155.54;100.00;57697.75;4978334;28;19932;-74
2024/02/07 11:07:47;;;;;;;;;;;;;;;-155.54;100.00;57697.75;4991080;28;19999;-74
2024/02/07 11:10:12;;;;;;;;;;;;;;;-155.54;100.00;57697.75;4973542;28;20406;-74
2024/02/07 11:12:37;;;;;;;;;;;;;;;-155.54;100.00;57697.75;4995544;28;19972;-74
2024/02/07 11:15:03;;;;;;;;;;;;;;;-155.54;100.00;57697.75;4974246;28;20399;-74
2024/02/07 11:17:29;;;;;;;;;;;;;;;-155.54;100.00;57697.75;4979005;28;19932;-74
2024/02/07 11:19:54;;;;;;;;;;;;;;;-155.54;100.00;57697.75;4996306;28;19925;-74
2024/02/07 11:22:21;;;;;;;;;;;;;;;-155.54;100.00;57697.75;4993998;28;20196;-74
2024/02/07 11:24:47;;;;;;;;;;;;;;;-155.54;100.00;57697.75;4976024;28;19933;-74
2024/02/07 11:27:12;;;;;;;;;;;;;;;-155.54;100.00;57697.75;4965546;28;20443;-74
2024/02/07 11:29:37;;;;;;;;;;;;;;;-155.54;100.00;57697.75;4993318;28;20208;-74
2024/02/07 11:32:03;;;;;;;;;;;;;;;-155.54;100.00;57697.75;4993255;28;19921;-74
2024/02/07 11:34:28;;;;;;;;;;;;;;;-155.54;100.00;57697.75;4989856;28;19991;-74
2024/02/07 11:36:57;;;;;;;;;;;;;;;-155.54;100.00;57697.75;4991724;28;19925;-74
2024/02/07 11:39:22;;;;;;;;;;;;;;;-155.54;100.00;57697.75;4987625;28;19980;-74
2024/02/07 11:41:48;;;;;;;;;;;;;;;-155.54;100.00;57697.75;4990844;28;19929;-74
2024/02/07 11:44:15;;;;;;;;;;;;;;;-155.54;100.00;57697.75;4989686;28;19925;-74
2024/02/07 11:46:54;;;;;;;;;;;;;;;-155.54;100.00;57697.75;4972917;28;19918;-74
2024/02/07 11:49:24;;;;;;;;;;;;;;;-155.54;100.00;57697.75;4991748;28;19977;-74
2024/02/07 11:51:59;;;;;;;;;;;;;;;-155.54;100.00;57697.75;4996048;28;20437;-74
2024/02/07 11:54:29;;;;;;;;;;;;;;;-155.54;100.00;57697.75;4995528;28;20268;-74
2024/02/07 11:56:55;;;;;;;;;;;;;;;-155.54;100.00;57697.75;4975961;28;20080;-74
2024/02/07 11:59:20;;;;;;;;;;;;;;;-155.54;100.00;57697.75;4996310;28;20047;-74
2024/02/07 12:01:45;;;;;;;;;;;;;;;-155.54;100.00;57697.75;4995304;28;20378;-73
2024/02/07 12:04:11;;;;;;;;;;;;;;;-155.54;100.00;57697.75;4973421;28;20665;-74
2024/02/07 12:06:36;;;;;;;;;;;;;;;-155.54;100.00;57697.75;4980682;28;19944;-74
2024/02/07 12:09:01;;;;;;;;;;;;;;;-155.54;100.00;57697.75;4975517;28;20454;-74
2024/02/07 12:11:27;;;;;;;;;;;;;;;-155.54;100.00;57697.75;4996574;28;19926;-74
2024/02/07 12:13:52;;;;;;;;;;;;;;;-155.54;100.00;57697.75;4967921;28;19925;-74
2024/02/07 12:16:19;;;;;;;;;;;;;;;-155.54;100.00;57697.75;4993581;28;20421;-74
2024/02/07 12:18:44;;;;;;;;;;;;;;;-155.54;100.00;57697.75;4997882;28;19925;-73
2024/02/07 12:21:10;;;;;;;;;;;;;;;-155.54;100.00;57697.75;4991176;28;19929;-73
2024/02/07 12:23:35;;;;;;;;;;;;;;;-155.54;100.00;57697.75;4991802;28;20012;-74
2024/02/07 12:26:01;;;;;;;;;;;;;;;-155.54;100.00;57697.75;4989507;28;20163;-72
2024/02/07 12:28:27;;;;;;;;;;;;;;;-155.54;100.00;57697.75;4999085;28;19921;-73
2024/02/07 12:30:55;;;;;;;;;;;;;;;-155.54;100.00;57697.75;4999482;28;19926;-73
2024/02/07 12:33:21;;;;;;;;;;;;;;;-155.54;100.00;57697.75;4973798;28;19922;-73
2024/02/07 12:35:51;;;;;;;;;;;;;;;-155.54;100.00;57697.75;4996972;28;19929;-72
2024/02/07 12:38:16;;;;;;;;;;;;;;;-155.54;100.00;57697.75;4971828;28;19925;-73
2024/02/07 12:40:42;;;;;;;;;;;;;;;-155.54;100.00;57697.75;4997977;28;19925;-73
2024/02/07 12:43:07;;;;;;;;;;;;;;;-155.54;100.00;57697.75;4993580;28;20444;-72
2024/02/07 12:45:32;;;;;;;;;;;;;;;-155.54;100.00;57697.75;4994999;28;19960;-72
2024/02/07 12:47:58;;;;;;;;;;;;;;;-155.54;100.00;57697.75;5000012;28;19976;-72
2024/02/07 12:50:23;;;;;;;;;;;;;;;-155.54;100.00;57697.75;4948471;28;20303;-72
2024/02/07 12:52:48;;;;;;;;;;;;;;;-155.54;100.00;57697.75;4992587;28;19922;-72
2024/02/07 12:55:13;;;;;;;;;;;;;;;-155.54;100.00;57697.75;4965993;28;20008;-72
2024/02/07 12:57:39;;;;;;;;;;;;;;;-155.54;100.00;57697.75;4995575;28;20422;-73
2024/02/07 13:00:08;;;;;;;;;;;;;;;-155.54;100.00;57697.75;4999009;28;19925;-72
2024/02/07 13:02:34;;;;;;;;;;;;;;;-155.54;100.00;57697.75;4994859;28;20024;-73
2024/02/07 13:04:59;;;;;;;;;;;;;;;-155.54;100.00;57697.75;4992275;28;20004;-72
2024/02/07 13:07:25;;;;;;;;;;;;;;;-155.54;100.00;57697.75;4996164;28;19925;-72
2024/02/07 13:09:50;;;;;;;;;;;;;;;-155.54;100.00;57697.75;4980292;28;19925;-72
2024/02/07 13:12:15;;;;;;;;;;;;;;;-155.54;100.00;57697.75;4994515;28;20364;-72
2024/02/07 13:14:41;;;;;;;;;;;;;;;-155.54;100.00;57697.75;4988461;28;19947;-73
2024/02/07 13:17:06;;;;;;;;;;;;;;;-155.54;100.00;57697.75;4999265;28;19928;-71